Time;durP1;ratioP1;P1;durP2;ratioP2;P2;SDS_P1;SDS_P2;PMS_P1;PMS_P2;Temp;Humidity;BMP_temperature;BMP_pressure;BME280_temperature;BME280_humidity;BME280_pressure;Samples;Min_cycle;Max_cycle;Signal;HPM_P1;HPM_P2
2022/11/17 00:01:09;;;;;;;0.65;0.10;;;;;;;;;;5068445;28;20033;-74
2022/11/17 00:03:57;;;;;;;0.68;0.10;;;;;;;;;;5068907;28;20037;-74
2022/11/17 00:06:31;;;;;;;0.10;0.00;;;;;;;;;;5061857;28;20035;-75
2022/11/17 00:09:00;;;;;;;2.42;0.20;;;;;;;;;;5072392;28;20119;-75
2022/11/17 00:14:32;;;;;;;0.10;0.08;;;;;;;;;;5062690;28;20510;-74
2022/11/17 00:17:14;;;;;;;1.75;0.10;;;;;;;;;;5067307;28;20067;-75
2022/11/17 00:22:31;;;;;;;2.97;0.80;;;;;;;;;;5058432;28;20043;-75
2022/11/17 00:25:03;;;;;;;4.35;1.35;;;;;;;;;;5070014;28;20044;-75
2022/11/17 00:27:36;;;;;;;;;;;;;;;;;;5072721;28;20042;-75
2022/11/17 00:30:03;;;;;;;4.75;1.75;;;;;;;;;;5068117;28;20632;-75
2022/11/17 00:35:31;;;;;;;1.77;0.50;;;;;;;;;;5066171;28;20062;-75
2022/11/17 00:38:15;;;;;;;0.75;0.10;;;;;;;;;;5065611;28;20032;-75
2022/11/17 00:40:45;;;;;;;1.73;0.40;;;;;;;;;;5067612;28;20107;-74
2022/11/17 00:43:11;;;;;;;1.45;0.20;;;;;;;;;;5065813;28;20040;-75
2022/11/17 00:45:40;;;;;;;2.58;0.10;;;;;;;;;;5061907;28;20053;-74
2022/11/17 00:48:15;;;;;;;1.23;0.10;;;;;;;;;;5070465;28;20102;-75
2022/11/17 00:50:53;;;;;;;0.77;0.10;;;;;;;;;;5065861;28;20541;-75
2022/11/17 00:53:27;;;;;;;0.50;0.10;;;;;;;;;;5068315;28;20095;-75
2022/11/17 00:56:02;;;;;;;0.82;0.20;;;;;;;;;;5066910;28;20032;-74
2022/11/17 00:58:40;;;;;;;1.55;0.15;;;;;;;;;;5067458;28;20889;-74
2022/11/17 01:01:10;;;;;;;1.90;0.25;;;;;;;;;;5067769;28;20040;-75
2022/11/17 01:03:53;;;;;;;0.60;0.10;;;;;;;;;;5068584;28;20036;-75
2022/11/17 01:06:34;;;;;;;0.35;0.10;;;;;;;;;;5060720;28;20133;-74
2022/11/17 01:09:11;;;;;;;1.30;0.20;;;;;;;;;;5063648;28;20044;-75
2022/11/17 01:11:37;;;;;;;2.97;0.50;;;;;;;;;;5064863;28;20028;-74
2022/11/17 01:14:10;;;;;;;3.85;0.80;;;;;;;;;;5068809;28;20032;-74
2022/11/17 01:16:44;;;;;;;2.40;0.60;;;;;;;;;;5061538;28;20037;-74
2022/11/17 01:19:12;;;;;;;2.20;0.20;;;;;;;;;;5067926;28;20047;-74
2022/11/17 01:21:49;;;;;;;1.00;0.20;;;;;;;;;;5065560;28;20081;-74
2022/11/17 01:24:19;;;;;;;1.52;0.40;;;;;;;;;;5066725;28;20028;-75
2022/11/17 01:26:45;;;;;;;3.17;1.05;;;;;;;;;;5058026;28;20028;-75
2022/11/17 01:29:13;;;;;;;2.47;0.50;;;;;;;;;;5060986;28;20032;-74
2022/11/17 01:31:51;;;;;;;3.00;0.57;;;;;;;;;;5060371;28;20098;-74
2022/11/17 01:34:20;;;;;;;3.25;1.10;;;;;;;;;;5066269;28;20029;-74
2022/11/17 01:39:44;;;;;;;4.45;0.75;;;;;;;;;;5067691;28;20066;-74
2022/11/17 01:42:23;;;;;;;8.88;0.88;;;;;;;;;;5060570;28;20390;-74
2022/11/17 01:45:31;;;;;;;3.15;0.77;;;;;;;;;;5060318;28;20394;-74
2022/11/17 01:48:20;;;;;;;3.30;0.75;;;;;;;;;;5064011;28;20040;-74
2022/11/17 01:50:50;;;;;;;1.55;0.10;;;;;;;;;;5066826;28;20032;-74
2022/11/17 01:53:22;;;;;;;1.13;0.30;;;;;;;;;;5067145;28;20028;-73
2022/11/17 01:56:00;;;;;;;0.80;0.20;;;;;;;;;;5066287;28;20025;-74
2022/11/17 01:58:46;;;;;;;0.95;0.20;;;;;;;;;;5059978;28;20089;-74
2022/11/17 02:01:25;;;;;;;1.40;0.20;;;;;;;;;;5066491;28;20032;-74
2022/11/17 02:03:56;;;;;;;0.32;0.10;;;;;;;;;;5064108;28;20047;-74
2022/11/17 02:06:57;;;;;;;1.70;0.22;;;;;;;;;;5068286;28;20111;-74
2022/11/17 02:09:33;;;;;;;4.95;0.60;;;;;;;;;;5062999;28;20024;-73
2022/11/17 02:12:08;;;;;;;3.22;0.70;;;;;;;;;;5072648;28;20033;-74
2022/11/17 02:14:37;;;;;;;3.58;0.60;;;;;;;;;;5065622;28;20111;-74
2022/11/17 02:17:07;;;;;;;1.77;0.50;;;;;;;;;;5064600;28;20127;-74
2022/11/17 02:19:43;;;;;;;3.60;1.00;;;;;;;;;;5066172;28;20031;-74
2022/11/17 02:22:09;;;;;;;1.95;0.30;;;;;;;;;;5064632;28;20059;-73
2022/11/17 02:24:56;;;;;;;1.63;0.30;;;;;;;;;;5062016;28;20055;-74
2022/11/17 02:27:55;;;;;;;0.52;0.10;;;;;;;;;;5062862;28;20036;-74
2022/11/17 02:30:34;;;;;;;0.88;0.20;;;;;;;;;;5015420;28;20361;-74
2022/11/17 02:33:01;;;;;;;1.17;0.32;;;;;;;;;;5070963;28;20052;-74
2022/11/17 02:39:14;;;;;;;1.00;0.30;;;;;;;;;;5066233;28;20060;-74
2022/11/17 02:41:45;;;;;;;;;;;;;;;;;;5034303;28;20098;-74
2022/11/17 02:44:30;;;;;;;0.30;0.20;;;;;;;;;;5065309;28;19920;-74
2022/11/17 02:47:41;;;;;;;1.00;0.30;;;;;;;;;;5062290;28;20048;-74
2022/11/17 02:50:16;;;;;;;5.57;0.90;;;;;;;;;;5002097;28;20038;-74
2022/11/17 02:52:42;;;;;;;3.85;0.75;;;;;;;;;;5056202;28;20185;-74
2022/11/17 02:55:14;;;;;;;2.53;0.45;;;;;;;;;;5066261;28;20036;-74
2022/11/17 02:57:48;;;;;;;3.08;0.30;;;;;;;;;;5064213;28;20028;-73
2022/11/17 03:00:20;;;;;;;2.10;0.40;;;;;;;;;;5060142;28;20025;-74
2022/11/17 03:02:56;;;;;;;;;;;;;;;;;;5063604;28;20370;-74
2022/11/17 03:05:34;;;;;;;0.93;0.20;;;;;;;;;;5062383;28;19912;-74
2022/11/17 03:08:10;;;;;;;2.92;0.47;;;;;;;;;;5064658;28;20573;-74
2022/11/17 03:10:46;;;;;;;2.28;0.60;;;;;;;;;;5064674;28;20107;-74
2022/11/17 03:13:20;;;;;;;3.33;0.30;;;;;;;;;;5062096;28;20152;-73
2022/11/17 03:16:19;;;;;;;1.10;0.30;;;;;;;;;;5064646;28;20040;-74
2022/11/17 03:19:06;;;;;;;1.67;0.30;;;;;;;;;;5011236;28;20490;-73
2022/11/17 03:22:04;;;;;;;0.90;0.20;;;;;;;;;;5063757;28;20025;-74
2022/11/17 03:24:42;;;;;;;1.23;0.30;;;;;;;;;;5066971;28;20110;-74
2022/11/17 03:27:44;;;;;;;1.45;0.35;;;;;;;;;;5058643;28;20041;-74
2022/11/17 03:30:24;;;;;;;3.83;0.30;;;;;;;;;;5069884;28;20501;-74
2022/11/17 03:33:04;;;;;;;0.43;0.10;;;;;;;;;;5064618;28;20040;-74
2022/11/17 03:35:39;;;;;;;1.48;0.35;;;;;;;;;;5065795;28;20032;-74
2022/11/17 03:38:09;;;;;;;1.15;0.10;;;;;;;;;;5066475;28;20102;-74
2022/11/17 03:40:42;;;;;;;1.23;0.10;;;;;;;;;;5064945;28;20115;-74
2022/11/17 03:43:15;;;;;;;1.02;0.20;;;;;;;;;;5060811;28;20064;-74
2022/11/17 03:46:00;;;;;;;3.67;0.60;;;;;;;;;;5064709;28;20053;-74
2022/11/17 03:48:50;;;;;;;2.30;0.80;;;;;;;;;;5065703;28;20029;-74
2022/11/17 03:51:38;;;;;;;2.45;0.50;;;;;;;;;;5058455;28;20064;-74
2022/11/17 03:54:11;;;;;;;4.32;0.20;;;;;;;;;;5067890;28;20049;-74
2022/11/17 03:57:01;;;;;;;0.57;0.10;;;;;;;;;;5069215;28;20060;-74
2022/11/17 03:59:49;;;;;;;2.13;0.30;;;;;;;;;;5064040;28;20032;-73
2022/11/17 04:02:22;;;;;;;3.28;0.70;;;;;;;;;;5069613;28;20032;-74
2022/11/17 04:05:09;;;;;;;3.50;0.60;;;;;;;;;;5062574;28;20127;-74
2022/11/17 04:08:05;;;;;;;5.60;2.08;;;;;;;;;;5066269;28;20069;-74
2022/11/17 04:16:32;;;;;;;;;;;;;;;;;;5067385;28;20083;-74
2022/11/17 04:18:58;;;;;;;3.33;1.00;;;;;;;;;;5066707;28;19923;-74
2022/11/17 04:21:33;;;;;;;3.58;0.80;;;;;;;;;;5067177;28;20035;-74
2022/11/17 04:24:06;;;;;;;2.60;0.50;;;;;;;;;;5060069;28;20044;-74
2022/11/17 04:29:27;;;;;;;3.80;0.50;;;;;;;;;;5066083;28;20466;-74
2022/11/17 04:32:02;;;;;;;2.13;0.50;;;;;;;;;;5063155;28;20028;-74
2022/11/17 04:34:32;;;;;;;1.70;0.50;;;;;;;;;;5069825;28;20517;-74
2022/11/17 04:37:16;;;;;;;4.43;0.90;;;;;;;;;;5070535;28;20036;-74
2022/11/17 04:39:50;;;;;;;3.90;0.68;;;;;;;;;;5067168;28;20029;-73
2022/11/17 04:42:24;;;;;;;2.65;0.70;;;;;;;;;;5063567;28;20028;-74
2022/11/17 04:45:15;;;;;;;3.08;0.73;;;;;;;;;;5068208;28;20032;-73
2022/11/17 04:48:06;;;;;;;2.83;0.70;;;;;;;;;;5068072;28;20037;-74
2022/11/17 04:50:36;;;;;;;2.92;0.52;;;;;;;;;;5065830;28;20052;-74
2022/11/17 04:53:14;;;;;;;3.03;0.90;;;;;;;;;;5066796;28;20032;-74
2022/11/17 04:55:46;;;;;;;2.50;0.90;;;;;;;;;;5063635;28;20032;-74
2022/11/17 05:01:26;;;;;;;4.63;0.43;;;;;;;;;;5066759;28;20048;-74
2022/11/17 05:04:11;;;;;;;3.17;0.50;;;;;;;;;;5063804;28;20494;-74
2022/11/17 05:09:36;;;;;;;2.67;0.60;;;;;;;;;;5064794;28;20036;-74
2022/11/17 05:15:08;;;;;;;1.85;0.30;;;;;;;;;;5064960;28;20093;-74
2022/11/17 05:17:39;;;;;;;1.42;0.40;;;;;;;;;;5065595;28;20029;-73
2022/11/17 05:20:34;;;;;;;5.32;0.80;;;;;;;;;;5063254;28;20147;-74
2022/11/17 05:25:48;;;;;;;3.58;0.70;;;;;;;;;;5066618;28;20035;-74
2022/11/17 05:31:12;;;;;;;4.88;0.88;;;;;;;;;;5064067;28;20036;-74
2022/11/17 05:36:37;;;;;;;4.10;0.60;;;;;;;;;;5056549;28;20040;-74
2022/11/17 05:39:16;;;;;;;;;;;;;;;;;;5062354;28;20037;-74
2022/11/17 05:41:53;;;;;;;1.98;0.60;;;;;;;;;;5071808;28;19912;-74
2022/11/17 05:44:22;;;;;;;2.53;0.40;;;;;;;;;;5056981;28;20036;-74
2022/11/17 05:46:57;;;;;;;2.10;0.45;;;;;;;;;;5067166;28;20095;-73
2022/11/17 05:49:26;;;;;;;2.50;0.20;;;;;;;;;;5064367;28;20037;-75
2022/11/17 05:51:58;;;;;;;1.42;0.20;;;;;;;;;;5064019;28;20029;-74
2022/11/17 05:54:33;;;;;;;;;;;;;;;;;;5066128;28;20036;-74
2022/11/17 05:57:26;;;;;;;1.17;0.20;;;;;;;;;;5067153;28;19954;-74
2022/11/17 06:00:03;;;;;;;1.45;0.32;;;;;;;;;;5067569;28;20067;-74
2022/11/17 06:02:45;;;;;;;2.95;0.30;;;;;;;;;;5075095;28;20036;-74
2022/11/17 06:05:14;;;;;;;2.67;0.40;;;;;;;;;;5065099;28;20025;-74
2022/11/17 06:07:53;;;;;;;3.95;0.55;;;;;;;;;;5058017;28;20294;-74
2022/11/17 06:10:26;;;;;;;0.98;0.40;;;;;;;;;;5062861;28;20393;-74
2022/11/17 06:13:08;;;;;;;2.63;0.50;;;;;;;;;;5065305;28;20029;-73
2022/11/17 06:15:52;;;;;;;2.03;0.40;;;;;;;;;;5058529;28;20055;-74
2022/11/17 06:18:28;;;;;;;3.38;0.35;;;;;;;;;;5064190;28;20039;-74
2022/11/17 06:21:17;;;;;;;3.40;0.50;;;;;;;;;;5063409;28;20032;-74
2022/11/17 06:23:50;;;;;;;2.78;0.50;;;;;;;;;;5050725;28;20044;-74
2022/11/17 06:26:21;;;;;;;1.20;0.30;;;;;;;;;;5060346;28;20024;-74
2022/11/17 06:28:50;;;;;;;2.97;0.93;;;;;;;;;;5063680;28;20033;-74
2022/11/17 06:34:34;;;;;;;5.95;1.65;;;;;;;;;;5052640;28;20401;-74
2022/11/17 06:37:10;;;;;;;4.70;1.38;;;;;;;;;;5058385;28;20061;-74
2022/11/17 06:40:02;;;;;;;3.40;1.25;;;;;;;;;;5057921;28;20033;-74
2022/11/17 06:45:24;;;;;;;2.72;0.60;;;;;;;;;;5063020;28;20055;-73
2022/11/17 06:48:06;;;;;;;2.33;0.40;;;;;;;;;;5063078;28;20028;-74
2022/11/17 06:50:41;;;;;;;4.00;1.10;;;;;;;;;;5054652;28;20035;-74
2022/11/17 06:53:14;;;;;;;4.75;0.70;;;;;;;;;;5056049;28;20757;-74
2022/11/17 06:56:00;;;;;;;7.68;1.13;;;;;;;;;;5061200;28;20132;-74
2022/11/17 06:58:32;;;;;;;4.45;1.50;;;;;;;;;;5060906;28;20025;-74
2022/11/17 07:01:21;;;;;;;8.23;2.75;;;;;;;;;;5068325;28;20518;-73
2022/11/17 07:04:08;;;;;;;8.43;2.30;;;;;;;;;;5058935;28;20033;-73
2022/11/17 07:06:43;;;;;;;7.32;2.70;;;;;;;;;;5059931;28;20030;-74
2022/11/17 07:09:25;;;;;;;;;;;;;;;;;;;;;
2022/11/17 07:12:17;;;;;;;8.10;2.13;;;;;;;;;;5055607;28;20688;-73
2022/11/17 07:15:12;;;;;;;6.88;1.70;;;;;;;;;;5061894;28;20477;-74
2022/11/17 07:17:51;;;;;;;6.65;2.42;;;;;;;;;;5058510;28;20060;-74
2022/11/17 07:35:18;;;;;;;8.15;2.38;;;;;;;;;;5070146;28;19998;-73
2022/11/17 07:38:08;;;;;;;10.60;1.70;;;;;;;;;;5063231;28;20041;-74
2022/11/17 07:40:47;;;;;;;3.30;1.00;;;;;;;;;;5066986;28;20036;-74
2022/11/17 07:47:15;;;;;;;7.45;1.67;;;;;;;;;;5059983;28;20048;-73
2022/11/17 07:52:47;;;;;;;4.57;0.90;;;;;;;;;;5067630;28;20068;-74
2022/11/17 07:58:41;;;;;;;6.00;0.68;;;;;;;;;;5061603;28;20701;-73
2022/11/17 08:01:26;;;;;;;5.30;0.80;;;;;;;;;;5064497;28;20036;-74
2022/11/17 08:04:01;;;;;;;2.67;0.57;;;;;;;;;;5072133;28;20028;-73
2022/11/17 08:06:37;;;;;;;2.38;0.50;;;;;;;;;;5068499;28;20028;-74
2022/11/17 08:09:16;;;;;;;4.45;0.50;;;;;;;;;;5065256;28;20087;-74
2022/11/17 08:12:20;;;;;;;2.10;0.50;;;;;;;;;;5066309;28;20029;-74
2022/11/17 08:15:00;;;;;;;2.30;0.50;;;;;;;;;;4988087;28;20041;-74
2022/11/17 08:17:30;;;;;;;1.90;0.47;;;;;;;;;;5057500;28;20048;-74
2022/11/17 08:20:16;;;;;;;3.83;0.80;;;;;;;;;;5062816;28;20103;-73
2022/11/17 08:22:43;;;;;;;4.85;1.10;;;;;;;;;;5074880;28;20052;-74
2022/11/17 08:25:37;;;;;;;4.80;0.80;;;;;;;;;;5062344;28;20028;-74
2022/11/17 08:28:18;;;;;;;7.75;2.30;;;;;;;;;;5063680;28;20070;-74
2022/11/17 08:30:44;;;;;;;5.65;0.98;;;;;;;;;;5066759;28;20356;-73
2022/11/17 08:36:16;;;;;;;15.43;3.15;;;;;;;;;;5065775;28;20074;-74
2022/11/17 08:38:57;;;;;;;11.98;1.90;;;;;;;;;;5068040;28;20050;-74
2022/11/17 08:41:37;;;;;;;19.15;3.40;;;;;;;;;;5066120;28;20370;-74
2022/11/17 08:44:07;;;;;;;8.15;1.90;;;;;;;;;;5059793;28;20040;-74
2022/11/17 08:46:47;;;;;;;17.83;3.22;;;;;;;;;;5063863;28;20052;-74
2022/11/17 08:49:42;;;;;;;13.05;1.73;;;;;;;;;;5063989;28;20032;-74
2022/11/17 08:52:22;;;;;;;7.43;1.35;;;;;;;;;;5064705;28;20551;-74
2022/11/17 08:55:12;;;;;;;13.38;1.90;;;;;;;;;;5064688;28;20033;-74
2022/11/17 08:57:43;;;;;;;10.63;1.98;;;;;;;;;;5065552;28;20791;-73
2022/11/17 09:00:18;;;;;;;8.73;1.40;;;;;;;;;;5066856;28;20041;-74
2022/11/17 09:02:53;;;;;;;4.35;0.98;;;;;;;;;;5065128;28;20028;-74
2022/11/17 09:05:30;;;;;;;6.75;1.48;;;;;;;;;;5062113;28;20066;-74
2022/11/17 09:08:28;;;;;;;7.85;1.80;;;;;;;;;;5062124;28;20103;-74
2022/11/17 09:11:14;;;;;;;7.07;2.30;;;;;;;;;;5056322;28;20103;-74
2022/11/17 09:14:09;;;;;;;12.23;2.60;;;;;;;;;;5064687;28;20032;-73
2022/11/17 09:16:38;;;;;;;8.30;2.47;;;;;;;;;;5060266;28;20079;-74
2022/11/17 09:19:10;;;;;;;5.40;1.80;;;;;;;;;;5061122;28;20033;-74
2022/11/17 09:22:00;;;;;;;8.32;2.45;;;;;;;;;;5061696;28;20055;-74
2022/11/17 09:24:37;;;;;;;9.70;2.33;;;;;;;;;;5063427;28;20059;-74
2022/11/17 09:27:07;;;;;;;13.15;2.75;;;;;;;;;;5059947;28;20056;-74
2022/11/17 09:29:47;;;;;;;7.35;1.80;;;;;;;;;;5065700;28;20471;-74
2022/11/17 09:32:18;;;;;;;9.82;2.15;;;;;;;;;;5063052;28;20036;-74
2022/11/17 09:35:14;;;;;;;8.18;2.15;;;;;;;;;;5064379;28;20404;-74
2022/11/17 09:37:44;;;;;;;7.63;1.80;;;;;;;;;;5067276;28;20123;-74
2022/11/17 09:40:19;;;;;;;7.97;2.13;;;;;;;;;;5064726;28;20032;-74
2022/11/17 09:42:59;;;;;;;7.00;1.60;;;;;;;;;;5055024;28;20039;-74
2022/11/17 09:45:28;;;;;;;8.00;1.83;;;;;;;;;;5064324;28;20040;-74
2022/11/17 09:47:54;;;;;;;6.75;1.45;;;;;;;;;;5061998;28;20050;-74
2022/11/17 09:50:29;;;;;;;10.35;2.20;;;;;;;;;;5065271;28;20051;-73
2022/11/17 09:53:12;;;;;;;5.75;1.80;;;;;;;;;;5064815;28;20434;-74
2022/11/17 09:55:37;;;;;;;;;;;;;;;;;;5062571;28;20027;-74
2022/11/17 09:58:06;;;;;;;8.23;2.08;;;;;;;;;;5061992;28;19916;-74
2022/11/17 10:00:35;;;;;;;6.00;1.45;;;;;;;;;;5064009;28;20029;-74
2022/11/17 10:03:01;;;;;;;12.50;1.70;;;;;;;;;;5060379;28;20724;-74
2022/11/17 10:05:31;;;;;;;6.30;1.27;;;;;;;;;;5064467;28;20453;-73
2022/11/17 10:07:59;;;;;;;7.55;1.65;;;;;;;;;;5061015;28;20477;-74
2022/11/17 10:10:34;;;;;;;7.93;1.33;;;;;;;;;;5066671;28;20112;-74
2022/11/17 10:13:02;;;;;;;6.57;0.80;;;;;;;;;;5059797;28;20032;-74
2022/11/17 10:15:29;;;;;;;13.13;2.72;;;;;;;;;;5058940;28;20065;-74
2022/11/17 10:17:55;;;;;;;15.07;7.00;;;;;;;;;;5065272;28;20768;-73
2022/11/17 10:20:22;;;;;;;7.88;1.73;;;;;;;;;;5057042;28;20480;-74
2022/11/17 10:22:49;;;;;;;6.55;0.85;;;;;;;;;;5058819;28;20158;-73
2022/11/17 10:25:23;;;;;;;6.00;0.95;;;;;;;;;;5059733;28;20062;-74
2022/11/17 10:27:52;;;;;;;4.93;0.70;;;;;;;;;;5058005;28;20083;-74
2022/11/17 10:30:24;;;;;;;3.72;0.65;;;;;;;;;;5062115;28;20473;-74
2022/11/17 10:32:51;;;;;;;9.10;0.93;;;;;;;;;;5060440;28;20032;-74
2022/11/17 10:35:20;;;;;;;6.47;2.38;;;;;;;;;;5063187;28;20510;-74
2022/11/17 10:37:54;;;;;;;2.75;0.50;;;;;;;;;;5065706;28;20024;-74
2022/11/17 10:40:21;;;;;;;4.20;0.60;;;;;;;;;;5062471;28;20042;-74
2022/11/17 10:42:56;;;;;;;6.25;0.93;;;;;;;;;;5060516;28;21216;-74
2022/11/17 10:45:22;;;;;;;4.20;0.55;;;;;;;;;;5060061;28;20044;-73
2022/11/17 10:47:48;;;;;;;3.67;0.50;;;;;;;;;;5061784;28;20032;-74
2022/11/17 10:50:18;;;;;;;2.63;0.60;;;;;;;;;;5062138;28;20060;-74
2022/11/17 10:52:44;;;;;;;3.90;0.55;;;;;;;;;;5063055;28;20096;-74
2022/11/17 10:55:19;;;;;;;5.85;0.75;;;;;;;;;;5052132;28;20038;-74
2022/11/17 10:57:47;;;;;;;3.17;0.47;;;;;;;;;;5068508;28;20821;-74
2022/11/17 11:00:23;;;;;;;3.38;0.50;;;;;;;;;;5062803;28;20025;-74
2022/11/17 11:02:49;;;;;;;6.00;0.88;;;;;;;;;;5064124;28;20041;-74
2022/11/17 11:05:16;;;;;;;6.53;0.80;;;;;;;;;;5059863;28;20035;-74
2022/11/17 11:07:43;;;;;;;3.53;0.50;;;;;;;;;;5067884;28;20036;-75
2022/11/17 11:10:18;;;;;;;3.38;0.45;;;;;;;;;;5064933;28;20035;-74
2022/11/17 11:12:55;;;;;;;3.45;0.52;;;;;;;;;;5063892;28;20145;-74
2022/11/17 11:15:22;;;;;;;5.35;1.20;;;;;;;;;;5064806;28;20025;-74
2022/11/17 11:17:48;;;;;;;3.60;0.60;;;;;;;;;;5063989;28;20511;-74
2022/11/17 11:20:15;;;;;;;5.18;0.70;;;;;;;;;;5067870;28;20027;-74
2022/11/17 11:22:57;;;;;;;3.08;0.55;;;;;;;;;;5069829;28;20123;-74
2022/11/17 11:25:30;;;;;;;3.23;0.60;;;;;;;;;;5061642;28;20508;-74
2022/11/17 11:27:56;;;;;;;4.50;0.63;;;;;;;;;;5067495;28;20715;-75
2022/11/17 11:30:22;;;;;;;4.40;0.60;;;;;;;;;;5070757;28;20032;-74
2022/11/17 11:32:54;;;;;;;3.92;0.75;;;;;;;;;;5069194;28;20048;-74
2022/11/17 11:35:20;;;;;;;2.00;0.60;;;;;;;;;;5065202;28;20033;-75
2022/11/17 11:37:55;;;;;;;2.67;0.52;;;;;;;;;;5065364;28;20036;-75
2022/11/17 11:40:26;;;;;;;3.83;0.75;;;;;;;;;;5065641;28;20071;-75
2022/11/17 11:42:52;;;;;;;2.53;0.30;;;;;;;;;;5066488;28;20029;-75
2022/11/17 11:45:36;;;;;;;5.28;0.93;;;;;;;;;;5068982;28;20052;-74
2022/11/17 11:48:09;;;;;;;5.35;0.82;;;;;;;;;;5068828;28;20028;-74
2022/11/17 11:50:55;;;;;;;3.65;0.50;;;;;;;;;;5063832;28;20566;-74
2022/11/17 11:53:36;;;;;;;3.50;0.50;;;;;;;;;;5062404;28;20056;-75
2022/11/17 11:56:21;;;;;;;3.23;0.97;;;;;;;;;;5056435;28;20403;-74
2022/11/17 11:59:07;;;;;;;3.50;0.60;;;;;;;;;;5068523;28;20033;-75
2022/11/17 12:01:42;;;;;;;5.47;1.17;;;;;;;;;;5036446;28;20052;-75
2022/11/17 12:04:08;;;;;;;4.40;0.75;;;;;;;;;;5065168;28;20086;-75
2022/11/17 12:06:44;;;;;;;4.55;0.80;;;;;;;;;;5065448;28;20020;-75
2022/11/17 12:09:12;;;;;;;4.45;0.57;;;;;;;;;;5068024;28;20041;-74
2022/11/17 12:14:24;;;;;;;5.00;0.85;;;;;;;;;;5067188;28;20043;-75
2022/11/17 12:16:59;;;;;;;5.68;0.93;;;;;;;;;;5074328;28;20025;-74
2022/11/17 12:19:44;;;;;;;7.35;1.45;;;;;;;;;;5064561;28;20036;-74
2022/11/17 12:22:15;;;;;;;4.95;1.25;;;;;;;;;;5066670;28;20044;-74
2022/11/17 12:24:41;;;;;;;3.08;0.60;;;;;;;;;;5065527;28;20033;-74
2022/11/17 12:27:26;;;;;;;5.15;0.77;;;;;;;;;;5065844;28;20111;-74
2022/11/17 12:29:52;;;;;;;5.13;0.82;;;;;;;;;;5063160;28;20054;-74
2022/11/17 12:32:37;;;;;;;4.85;0.60;;;;;;;;;;5065465;28;20036;-74
2022/11/17 12:35:29;;;;;;;5.88;0.70;;;;;;;;;;5062435;28;20044;-74
2022/11/17 12:38:16;;;;;;;7.85;1.00;;;;;;;;;;5063673;28;20044;-74
2022/11/17 12:40:42;;;;;;;6.65;1.48;;;;;;;;;;5063821;28;20454;-74
2022/11/17 12:43:14;;;;;;;4.35;0.82;;;;;;;;;;5068411;28;20032;-74
2022/11/17 12:46:00;;;;;;;5.70;1.00;;;;;;;;;;5062890;28;20056;-74
2022/11/17 12:48:30;;;;;;;5.32;0.90;;;;;;;;;;5060710;28;20126;-75
2022/11/17 12:51:15;;;;;;;5.20;0.80;;;;;;;;;;5063892;28;20032;-74
2022/11/17 12:53:56;;;;;;;7.00;0.88;;;;;;;;;;5062724;28;20077;-74
2022/11/17 12:56:28;;;;;;;8.45;1.20;;;;;;;;;;5059713;28;20108;-74
2022/11/17 12:58:59;;;;;;;4.55;0.77;;;;;;;;;;5064955;28;20381;-74
2022/11/17 13:01:25;;;;;;;10.38;1.23;;;;;;;;;;5063821;28;20089;-73
2022/11/17 13:03:57;;;;;;;9.68;1.08;;;;;;;;;;5065497;28;20056;-74
2022/11/17 13:06:23;;;;;;;9.07;1.02;;;;;;;;;;5059276;28;20031;-74
2022/11/17 13:08:56;;;;;;;6.65;1.10;;;;;;;;;;5057072;28;20028;-74
2022/11/17 13:11:22;;;;;;;7.20;1.30;;;;;;;;;;5060529;28;20024;-74
2022/11/17 13:13:48;;;;;;;8.35;1.95;;;;;;;;;;5067038;28;20094;-74
2022/11/17 13:16:19;;;;;;;6.43;1.15;;;;;;;;;;5064255;28;20040;-74
2022/11/17 13:18:45;;;;;;;8.35;0.90;;;;;;;;;;5064701;28;20162;-74
2022/11/17 13:21:30;;;;;;;3.65;0.60;;;;;;;;;;5065317;28;20047;-74
2022/11/17 13:23:57;;;;;;;5.05;0.77;;;;;;;;;;5069127;28;20504;-74
2022/11/17 13:26:24;;;;;;;3.72;0.60;;;;;;;;;;5064044;28;20036;-74
2022/11/17 13:29:02;;;;;;;6.43;0.63;;;;;;;;;;5061403;28;20067;-74
2022/11/17 13:31:29;;;;;;;9.40;0.98;;;;;;;;;;5065634;28;20066;-73
2022/11/17 13:34:13;;;;;;;7.10;0.55;;;;;;;;;;5068519;28;20123;-74
2022/11/17 13:36:55;;;;;;;6.15;1.00;;;;;;;;;;5059323;28;20068;-74
2022/11/17 13:39:21;;;;;;;3.17;0.50;;;;;;;;;;5062623;28;20058;-74
2022/11/17 13:41:48;;;;;;;4.10;0.57;;;;;;;;;;5067467;28;20732;-74
2022/11/17 13:44:16;;;;;;;6.47;0.82;;;;;;;;;;5063172;28;20039;-74
2022/11/17 13:46:42;;;;;;;5.40;0.95;;;;;;;;;;5060466;28;20080;-74
2022/11/17 13:49:26;;;;;;;4.97;0.90;;;;;;;;;;5068608;28;20410;-74
2022/11/17 13:51:52;;;;;;;5.97;0.75;;;;;;;;;;5059299;28;20898;-74
2022/11/17 13:54:18;;;;;;;6.40;1.30;;;;;;;;;;5056856;28;20041;-74
2022/11/17 13:57:10;;;;;;;5.45;1.05;;;;;;;;;;5060571;28;20122;-74
2022/11/17 13:59:38;;;;;;;6.43;1.52;;;;;;;;;;5059529;28;20040;-74
2022/11/17 14:02:18;;;;;;;5.50;0.75;;;;;;;;;;5063677;28;20044;-74
2022/11/17 14:05:02;;;;;;;5.78;1.15;;;;;;;;;;5058045;28;20025;-74
2022/11/17 14:07:29;;;;;;;7.05;1.75;;;;;;;;;;5061244;28;20029;-74
2022/11/17 14:10:10;;;;;;;6.97;1.30;;;;;;;;;;5063602;28;20024;-74
2022/11/17 14:12:36;;;;;;;3.30;0.90;;;;;;;;;;5064078;28;20028;-74
2022/11/17 14:15:12;;;;;;;5.47;0.90;;;;;;;;;;5070451;28;20029;-74
2022/11/17 14:17:38;;;;;;;4.57;0.60;;;;;;;;;;5059235;28;20045;-74
2022/11/17 14:20:24;;;;;;;7.90;0.85;;;;;;;;;;5058121;28;20545;-74
2022/11/17 14:23:06;;;;;;;4.78;1.00;;;;;;;;;;5055650;28;20528;-74
2022/11/17 14:25:37;;;;;;;6.78;1.80;;;;;;;;;;5067992;28;20028;-74
2022/11/17 14:28:03;;;;;;;8.05;1.58;;;;;;;;;;5057279;28;20029;-74
2022/11/17 14:30:29;;;;;;;5.65;0.90;;;;;;;;;;5061079;28;20555;-74
2022/11/17 14:32:55;;;;;;;11.25;1.10;;;;;;;;;;5066316;28;20566;-74
2022/11/17 14:35:21;;;;;;;5.28;0.90;;;;;;;;;;5062218;28;20032;-74
2022/11/17 14:37:47;;;;;;;7.03;1.00;;;;;;;;;;5065913;28;20779;-74
2022/11/17 14:40:16;;;;;;;7.75;1.23;;;;;;;;;;5064020;28;20034;-74
2022/11/17 14:42:43;;;;;;;6.20;1.30;;;;;;;;;;5059563;28;20688;-74
2022/11/17 14:45:13;;;;;;;6.25;1.40;;;;;;;;;;5060801;28;20455;-74
2022/11/17 14:47:39;;;;;;;3.85;0.90;;;;;;;;;;5057602;28;20037;-74
2022/11/17 14:50:06;;;;;;;3.10;0.63;;;;;;;;;;5058954;28;20025;-74
2022/11/17 14:52:32;;;;;;;6.63;1.42;;;;;;;;;;5054122;28;20100;-74
2022/11/17 14:54:59;;;;;;;7.63;1.42;;;;;;;;;;5061220;28;20146;-74
2022/11/17 14:57:25;;;;;;;4.55;0.88;;;;;;;;;;5062113;28;20035;-74
2022/11/17 14:59:51;;;;;;;6.03;1.25;;;;;;;;;;5063764;28;20028;-75
2022/11/17 15:02:17;;;;;;;5.20;1.00;;;;;;;;;;5070090;28;20458;-74
2022/11/17 15:04:43;;;;;;;4.57;1.00;;;;;;;;;;5064731;28;20370;-74
2022/11/17 15:07:09;;;;;;;10.48;2.17;;;;;;;;;;5066725;28;20047;-74
2022/11/17 15:09:35;;;;;;;9.88;2.70;;;;;;;;;;5065990;28;20025;-74
2022/11/17 15:12:01;;;;;;;9.52;1.00;;;;;;;;;;5066101;28;20029;-74
2022/11/17 15:14:27;;;;;;;4.80;0.52;;;;;;;;;;5063258;28;20056;-74
2022/11/17 15:16:53;;;;;;;5.05;0.50;;;;;;;;;;5062611;28;20028;-74
2022/11/17 15:19:19;;;;;;;6.70;2.97;;;;;;;;;;5062519;28;20499;-74
2022/11/17 15:21:45;;;;;;;12.52;5.07;;;;;;;;;;5067049;28;20024;-74
2022/11/17 15:24:11;;;;;;;8.68;3.35;;;;;;;;;;5065305;28;20036;-74
2022/11/17 15:26:37;;;;;;;4.80;1.00;;;;;;;;;;5061625;28;20443;-74
2022/11/17 15:29:03;;;;;;;5.80;0.90;;;;;;;;;;5063462;28;20036;-74
2022/11/17 15:31:29;;;;;;;6.10;1.05;;;;;;;;;;5061932;28;20422;-74
2022/11/17 15:33:55;;;;;;;5.05;0.98;;;;;;;;;;5064859;28;20575;-74
2022/11/17 15:36:22;;;;;;;5.55;1.15;;;;;;;;;;5064954;28;20064;-74
2022/11/17 15:38:48;;;;;;;9.93;2.05;;;;;;;;;;5060647;28;20043;-74
2022/11/17 15:41:14;;;;;;;12.55;1.50;;;;;;;;;;5063310;28;20028;-74
2022/11/17 15:43:41;;;;;;;8.80;1.55;;;;;;;;;;5072688;28;20043;-74
2022/11/17 15:46:12;;;;;;;8.18;1.45;;;;;;;;;;5070873;28;20371;-74
2022/11/17 15:48:41;;;;;;;8.50;1.17;;;;;;;;;;5067836;28;20145;-74
2022/11/17 15:51:07;;;;;;;4.57;0.80;;;;;;;;;;5065857;28;20020;-74
2022/11/17 15:53:34;;;;;;;6.00;0.50;;;;;;;;;;5064352;28;20063;-74
2022/11/17 15:56:03;;;;;;;6.75;0.63;;;;;;;;;;5068038;28;20127;-74
2022/11/17 15:58:30;;;;;;;3.58;0.50;;;;;;;;;;5068538;28;20037;-74
2022/11/17 16:01:06;;;;;;;5.32;0.60;;;;;;;;;;5066554;28;20036;-74
2022/11/17 16:03:32;;;;;;;3.28;0.70;;;;;;;;;;5070264;28;20044;-74
2022/11/17 16:05:58;;;;;;;2.28;0.50;;;;;;;;;;5058684;28;20381;-74
2022/11/17 16:08:24;;;;;;;4.85;0.75;;;;;;;;;;5067829;28;20047;-74
2022/11/17 16:10:50;;;;;;;2.33;0.47;;;;;;;;;;5072683;28;20033;-74
2022/11/17 16:13:16;;;;;;;3.58;0.52;;;;;;;;;;5077435;28;20756;-74
2022/11/17 16:15:42;;;;;;;5.22;0.68;;;;;;;;;;5066211;28;20091;-74
2022/11/17 16:18:08;;;;;;;4.18;0.70;;;;;;;;;;5063787;28;20037;-74
2022/11/17 16:20:34;;;;;;;3.92;0.63;;;;;;;;;;5063196;28;20033;-74
2022/11/17 16:23:00;;;;;;;6.78;0.90;;;;;;;;;;5065987;28;20041;-74
2022/11/17 16:25:26;;;;;;;7.88;1.48;;;;;;;;;;5065947;28;20029;-74
2022/11/17 16:27:52;;;;;;;4.35;1.20;;;;;;;;;;5061741;28;20070;-75
2022/11/17 16:30:18;;;;;;;13.70;5.03;;;;;;;;;;5062119;28;20036;-74
2022/11/17 16:32:44;;;;;;;12.93;4.28;;;;;;;;;;5064010;28;20028;-74
2022/11/17 16:35:10;;;;;;;7.60;1.67;;;;;;;;;;5067233;28;20071;-74
2022/11/17 16:37:36;;;;;;;8.90;1.65;;;;;;;;;;5062085;28;20500;-74
2022/11/17 16:40:03;;;;;;;6.55;0.95;;;;;;;;;;5067036;28;20029;-74
2022/11/17 16:42:31;;;;;;;11.48;1.77;;;;;;;;;;5064129;28;20699;-75
2022/11/17 16:44:57;;;;;;;12.30;2.33;;;;;;;;;;5067018;28;20024;-74
2022/11/17 16:47:23;;;;;;;11.23;2.55;;;;;;;;;;5061696;28;20040;-74